Time;durP1;ratioP1;P1;durP2;ratioP2;P2;SDS_P1;SDS_P2;PMS_P1;PMS_P2;Temp;Humidity;BMP_temperature;BMP_pressure;BME280_temperature;BME280_humidity;BME280_pressure;Samples;Min_cycle;Max_cycle;Signal;HPM_P1;HPM_P2
2023/04/24 00:00:47;;;;;;;6.40;4.10;;;;;;;7.86;100.00;99661.81;5016197;28;20042;-81
2023/04/24 00:03:13;;;;;;;5.50;4.07;;;;;;;7.92;100.00;99655.56;5005394;28;20042;-80
2023/04/24 00:05:41;;;;;;;4.80;3.93;;;;;;;7.86;100.00;99649.53;5005388;28;20106;-79
2023/04/24 00:08:07;;;;;;;8.63;5.57;;;;;;;8.05;100.00;99651.69;5013777;28;20042;-79
2023/04/24 00:10:34;;;;;;;6.47;4.67;;;;;;;7.95;100.00;99648.44;4996904;28;20045;-79
2023/04/24 00:13:01;;;;;;;5.57;4.70;;;;;;;7.98;100.00;99642.22;5011395;28;20045;-81
2023/04/24 00:15:28;;;;;;;7.30;4.27;;;;;;;8.04;100.00;99639.44;5009636;28;20474;-80
2023/04/24 00:17:55;;;;;;;5.83;4.40;;;;;;;7.94;100.00;99637.97;4993350;28;20057;-81
2023/04/24 00:20:22;;;;;;;5.30;4.27;;;;;;;7.85;100.00;99628.56;5009170;28;20075;-79
2023/04/24 00:22:49;;;;;;;5.33;4.23;;;;;;;7.94;100.00;99624.81;5022791;28;20053;-81
2023/04/24 00:25:16;;;;;;;8.37;4.17;;;;;;;7.93;100.00;99623.97;5016227;28;20033;-79
2023/04/24 00:27:42;;;;;;;6.63;4.17;;;;;;;7.99;100.00;99615.03;5035237;28;20076;-80
2023/04/24 00:30:09;;;;;;;6.73;4.67;;;;;;;7.92;100.00;99614.34;5017620;28;20109;-81
2023/04/24 00:32:36;;;;;;;6.00;4.20;;;;;;;7.95;100.00;99611.63;4992286;28;20045;-80
2023/04/24 00:35:03;;;;;;;5.80;3.67;;;;;;;8.01;100.00;99605.34;4996046;28;20388;-80
2023/04/24 00:37:29;;;;;;;9.20;6.30;;;;;;;8.17;100.00;99606.66;5005533;28;20049;-80
2023/04/24 00:39:56;;;;;;;5.00;4.40;;;;;;;8.06;100.00;99606.94;5000858;28;20075;-80
2023/04/24 00:42:23;;;;;;;6.87;5.10;;;;;;;8.19;100.00;99594.31;5003009;28;20099;-79
2023/04/24 00:44:50;;;;;;;7.23;5.83;;;;;;;8.33;100.00;99594.81;5009069;28;20037;-81
2023/04/24 00:47:18;;;;;;;5.50;4.57;;;;;;;8.24;100.00;99592.44;5009875;28;20038;-79
2023/04/24 00:49:45;;;;;;;10.50;6.70;;;;;;;8.35;100.00;99586.88;5001936;28;20068;-79
2023/04/24 00:52:12;;;;;;;8.33;6.20;;;;;;;8.36;100.00;99585.97;5018072;28;20041;-80
2023/04/24 00:54:39;;;;;;;7.70;5.17;;;;;;;8.37;100.00;99582.44;5016693;28;20069;-80
2023/04/24 00:57:06;;;;;;;7.57;5.63;;;;;;;8.31;100.00;99577.31;4998452;28;20048;-80
2023/04/24 05:37:09;;;;;;;10.88;8.25;;;;;;;10.21;100.00;99496.38;5058541;22;20510;-80
2023/04/24 05:39:36;;;;;;;12.45;8.52;;;;;;;10.34;100.00;99496.78;5020930;28;20037;-80
2023/04/24 05:42:04;;;;;;;14.23;9.13;;;;;;;10.48;100.00;99499.78;5021195;28;20099;-81
2023/04/24 05:44:31;;;;;;;12.88;8.40;;;;;;;10.74;100.00;99500.53;4988333;28;20042;-80
2023/04/24 05:46:58;;;;;;;10.35;7.78;;;;;;;10.82;100.00;99490.53;5016407;28;20387;-82
2023/04/24 05:49:24;;;;;;;11.15;7.82;;;;;;;11.09;100.00;99484.09;5020565;28;20068;-81
2023/04/24 05:51:51;;;;;;;9.95;7.75;;;;;;;11.32;100.00;99483.16;5018171;28;20037;-80
2023/04/24 05:54:17;;;;;;;9.40;7.35;;;;;;;11.53;100.00;99478.75;5016515;28;20437;-81
2023/04/24 05:56:44;;;;;;;8.55;6.80;;;;;;;11.71;100.00;99480.59;5016616;28;20136;-82
2023/04/24 05:59:11;;;;;;;8.30;6.45;;;;;;;11.82;100.00;99480.13;5005488;28;20045;-81
2023/04/24 06:01:37;;;;;;;7.78;6.40;;;;;;;11.82;100.00;99488.94;5013078;28;20042;-81
2023/04/24 06:04:05;;;;;;;6.20;5.45;;;;;;;11.79;100.00;99490.84;5021759;28;20072;-81
2023/04/24 06:06:32;;;;;;;9.63;6.53;;;;;;;11.83;100.00;99495.94;5049951;28;20068;-82
2023/04/24 06:08:59;;;;;;;7.65;6.28;;;;;;;11.84;100.00;99502.94;5014575;28;20052;-81
2023/04/24 06:11:26;;;;;;;8.52;6.20;;;;;;;11.87;100.00;99503.78;5030094;28;20037;-82
2023/04/24 06:13:52;;;;;;;7.07;6.30;;;;;;;11.88;100.00;99500.19;5034459;28;20100;-81
2023/04/24 06:16:19;;;;;;;6.38;5.53;;;;;;;11.79;100.00;99499.63;5014035;28;20428;-81
2023/04/24 06:18:47;;;;;;;8.13;5.78;;;;;;;11.84;100.00;99489.72;5018826;28;20632;-81
2023/04/24 06:21:15;;;;;;;5.18;4.68;;;;;;;11.86;100.00;99494.13;5027150;28;20067;-80
2023/04/24 06:23:41;;;;;;;7.05;5.35;;;;;;;12.18;100.00;99497.94;5009104;28;20133;-81
2023/04/24 06:26:08;;;;;;;5.82;4.97;;;;;;;12.87;100.00;99485.84;5019282;28;20076;-81
2023/04/24 06:28:38;;;;;;;5.70;4.95;;;;;;;13.59;100.00;99492.88;5002487;28;20734;-81
2023/04/24 06:31:04;;;;;;;6.65;4.13;;;;;;;14.45;100.00;99489.19;5045948;28;20041;-81
2023/04/24 06:33:31;;;;;;;4.35;3.72;;;;;;;14.96;100.00;99494.31;5026320;28;20477;-81
2023/04/24 06:35:58;;;;;;;4.20;3.80;;;;;;;15.55;100.00;99490.00;5019527;28;20051;-80
2023/04/24 06:38:25;;;;;;;3.75;3.22;;;;;;;16.18;100.00;99498.59;5031706;28;20803;-83
2023/04/24 06:40:51;;;;;;;4.60;3.88;;;;;;;16.22;98.15;99483.25;5028984;28;20043;-81
2023/04/24 06:43:19;;;;;;;4.75;3.38;;;;;;;16.41;100.00;99489.16;5022377;28;20063;-80
2023/04/24 06:45:46;;;;;;;3.97;3.17;;;;;;;16.47;100.00;99483.41;5067102;28;20045;-77
2023/04/24 06:48:13;;;;;;;4.07;3.20;;;;;;;16.67;99.46;99489.31;5048433;28;20045;-80
2023/04/24 06:50:40;;;;;;;4.57;3.83;;;;;;;16.83;94.72;99482.91;5026567;28;20091;-76
2023/04/24 06:53:06;;;;;;;5.07;3.47;;;;;;;17.04;96.85;99474.47;5024918;28;20099;-78
2023/04/24 06:55:33;;;;;;;3.80;2.97;;;;;;;17.14;92.29;99484.41;5024989;28;20052;-77
2023/04/24 06:58:00;;;;;;;3.53;3.17;;;;;;;17.28;90.75;99480.84;5025154;28;20056;-80
2023/04/24 07:00:27;;;;;;;5.22;3.45;;;;;;;17.08;84.39;99484.00;5014196;28;20111;-80
2023/04/24 07:02:53;;;;;;;6.03;3.45;;;;;;;17.17;86.77;99484.22;5028360;28;20426;-78
2023/04/24 07:05:20;;;;;;;4.68;3.00;;;;;;;17.21;85.37;99484.00;5038370;28;20132;-79
2023/04/24 07:07:47;;;;;;;3.78;3.38;;;;;;;17.53;87.05;99481.88;5025538;28;20490;-79
2023/04/24 07:10:14;;;;;;;3.92;3.20;;;;;;;17.64;83.36;99480.16;5048562;28;20493;-81
2023/04/24 07:12:41;;;;;;;4.57;2.78;;;;;;;17.59;79.98;99482.31;5025328;28;20045;-81
2023/04/24 07:15:08;;;;;;;2.83;2.53;;;;;;;17.52;81.23;99482.81;5021279;28;20041;-80
2023/04/24 07:17:35;;;;;;;3.72;2.80;;;;;;;17.54;85.76;99476.41;5029822;28;20490;-80
2023/04/24 07:20:02;;;;;;;4.28;2.95;;;;;;;17.41;79.17;99484.41;5024844;28;20608;-79
2023/04/24 07:22:29;;;;;;;4.57;2.53;;;;;;;17.42;79.77;99479.94;5051208;28;20044;-81
2023/04/24 07:24:55;;;;;;;3.05;2.75;;;;;;;17.24;81.63;99484.69;5034564;28;20041;-79
2023/04/24 07:27:22;;;;;;;3.63;2.83;;;;;;;17.00;81.58;99486.31;5035577;28;20036;-81
2023/04/24 07:29:49;;;;;;;3.70;2.70;;;;;;;16.33;82.59;99494.97;5024096;28;20508;-81
2023/04/24 07:32:15;;;;;;;3.20;2.67;;;;;;;16.21;86.75;99493.06;5050222;28;20044;-80
2023/04/24 07:34:42;;;;;;;3.88;2.60;;;;;;;16.36;87.65;99485.91;5049810;28;20044;-80
2023/04/24 07:37:09;;;;;;;3.22;2.58;;;;;;;16.28;87.31;99486.41;5047022;28;20437;-82
2023/04/24 07:39:35;;;;;;;3.60;2.40;;;;;;;16.13;87.68;99489.16;5029414;28;20060;-81
2023/04/24 07:42:03;;;;;;;3.80;2.47;;;;;;;15.97;90.88;99492.75;5064584;28;20052;-80
2023/04/24 07:44:30;;;;;;;3.30;2.50;;;;;;;16.19;91.13;99489.63;5036805;28;20128;-80
2023/04/24 07:46:56;;;;;;;2.80;2.50;;;;;;;16.42;92.41;99482.88;5046464;28;20032;-80
2023/04/24 07:49:23;;;;;;;3.33;2.20;;;;;;;16.78;87.17;99487.69;5046016;28;20043;-80
2023/04/24 07:51:50;;;;;;;3.63;2.35;;;;;;;17.11;86.02;99481.97;5070800;28;20040;-79
2023/04/24 07:54:16;;;;;;;2.40;2.03;;;;;;;17.29;83.31;99485.22;5020911;28;20036;-80
2023/04/24 07:56:43;;;;;;;3.33;2.20;;;;;;;17.25;77.71;99488.22;5018793;28;20136;-82
2023/04/24 07:59:10;;;;;;;2.65;2.00;;;;;;;17.45;84.09;99493.06;5051835;28;20120;-79
2023/04/24 08:01:38;;;;;;;2.92;2.00;;;;;;;17.32;76.19;99487.69;5020745;28;20044;-81
2023/04/24 08:04:04;;;;;;;2.85;1.50;;;;;;;16.85;73.42;99483.66;5016711;28;20036;-81
2023/04/24 08:06:32;;;;;;;3.45;1.80;;;;;;;16.97;75.34;99481.16;5038787;28;20405;-80
2023/04/24 08:09:02;;;;;;;3.38;1.50;;;;;;;17.08;77.19;99495.53;5048477;28;20494;-79
2023/04/24 08:11:29;;;;;;;2.05;1.38;;;;;;;17.24;71.48;99495.38;5029812;28;20036;-80
2023/04/24 08:13:56;;;;;;;2.55;1.80;;;;;;;17.40;70.55;99490.72;5027428;28;20501;-78
2023/04/24 08:16:23;;;;;;;1.55;1.15;;;;;;;17.45;70.18;99499.25;5045821;28;20513;-80
2023/04/24 08:18:51;;;;;;;1.33;1.20;;;;;;;17.12;67.80;99496.16;5024906;28;20041;-81
2023/04/24 08:21:18;;;;;;;1.83;1.10;;;;;;;17.33;70.97;99489.41;5048015;28;20036;-80
2023/04/24 08:23:45;;;;;;;1.20;1.10;;;;;;;17.56;67.09;99481.63;5018095;28;20132;-81
2023/04/24 08:26:13;;;;;;;1.88;1.15;;;;;;;17.73;68.40;99494.72;5039452;28;20051;-79
2023/04/24 08:28:39;;;;;;;2.20;1.20;;;;;;;17.68;68.24;99491.50;5016810;28;20052;-81
2023/04/24 08:31:06;;;;;;;4.28;1.60;;;;;;;17.75;68.56;99487.50;5029422;28;20033;-80
2023/04/24 08:33:36;;;;;;;1.77;1.20;;;;;;;17.78;65.98;99489.09;5048752;28;20076;-79
2023/04/24 08:36:03;;;;;;;1.80;1.30;;;;;;;17.82;68.08;99486.09;5026103;28;20517;-79
2023/04/24 08:38:30;;;;;;;1.48;1.13;;;;;;;17.82;66.13;99488.75;5049387;28;20043;-80
2023/04/24 08:40:58;;;;;;;1.48;1.05;;;;;;;17.76;67.05;99478.50;5024805;28;20049;-79
2023/04/24 08:43:26;;;;;;;1.77;1.40;;;;;;;17.85;69.43;99491.25;5042700;28;20045;-81
2023/04/24 08:45:55;;;;;;;1.85;1.13;;;;;;;18.03;69.49;99494.44;5021545;28;20135;-80
2023/04/24 08:48:25;;;;;;;1.58;1.48;;;;;;;18.03;65.62;99490.91;5023599;28;20493;-82
2023/04/24 08:50:58;;;;;;;2.03;1.40;;;;;;;18.21;64.49;99481.59;5054654;28;20043;-82
2023/04/24 08:53:26;;;;;;;2.20;1.20;;;;;;;18.44;67.89;99491.53;5039793;28;20071;-83
2023/04/24 08:55:55;;;;;;;1.20;1.00;;;;;;;18.58;63.20;99495.88;5029239;28;20116;-82
2023/04/24 08:58:24;;;;;;;1.27;1.17;;;;;;;18.76;62.66;99493.75;5043851;28;20036;-81
2023/04/24 09:00:51;;;;;;;1.52;1.10;;;;;;;18.93;60.03;99489.84;5028591;28;20332;-82
2023/04/24 09:03:18;;;;;;;2.30;1.17;;;;;;;18.87;57.66;99482.25;5040131;28;20263;-79
2023/04/24 09:05:47;;;;;;;1.20;1.00;;;;;;;18.71;60.39;99477.16;5039750;28;20110;-81
2023/04/24 09:08:14;;;;;;;1.63;1.00;;;;;;;18.52;60.80;99481.13;5034331;28;20051;-81
2023/04/24 09:10:40;;;;;;;1.58;1.02;;;;;;;18.38;62.02;99481.25;5018788;28;20221;-79
2023/04/24 09:13:09;;;;;;;0.95;0.82;;;;;;;18.18;60.90;99490.69;5054852;28;20157;-82
2023/04/24 09:15:36;;;;;;;1.20;1.00;;;;;;;18.15;59.89;99493.56;5031147;28;20047;-83
2023/04/24 09:18:04;;;;;;;1.48;1.10;;;;;;;18.19;61.15;99494.22;5039531;28;20036;-82
2023/04/24 09:20:31;;;;;;;1.42;0.90;;;;;;;18.03;59.56;99506.97;5024460;28;20068;-80
2023/04/24 09:22:58;;;;;;;2.63;1.08;;;;;;;18.02;59.01;99502.56;5040446;28;20049;-81
2023/04/24 09:25:33;;;;;;;2.72;1.10;;;;;;;17.91;60.06;99497.97;5040800;28;20045;-80
2023/04/24 09:28:03;;;;;;;3.38;1.50;;;;;;;17.91;57.13;99498.84;5039838;28;20044;-80
2023/04/24 09:30:31;;;;;;;1.38;1.27;;;;;;;17.91;58.58;99500.66;5050984;28;20760;-80
2023/04/24 09:33:12;;;;;;;1.98;1.00;;;;;;;17.95;56.43;99494.13;5022067;28;20048;-80
2023/04/24 09:35:43;;;;;;;1.02;0.70;;;;;;;17.99;58.00;99490.25;5053922;28;20242;-80
2023/04/24 09:38:10;;;;;;;1.10;0.90;;;;;;;18.09;57.91;99490.50;5037446;28;20037;-81
2023/04/24 09:40:37;;;;;;;1.65;0.90;;;;;;;18.16;55.08;99497.97;5029428;28;20025;-79
2023/04/24 09:43:10;;;;;;;1.50;1.00;;;;;;;18.27;57.88;99499.88;5047063;28;20047;-81
2023/04/24 09:45:39;;;;;;;0.95;0.70;;;;;;;18.19;52.84;99494.22;5031013;28;20064;-80
2023/04/24 09:48:09;;;;;;;1.70;0.70;;;;;;;18.24;54.72;99500.97;5019805;28;21169;-80
2023/04/24 09:50:36;;;;;;;4.68;2.95;;;;;;;18.36;55.65;99498.38;5063129;28;20075;-80
2023/04/24 09:53:05;;;;;;;0.90;0.77;;;;;;;18.49;51.08;99496.53;5053476;28;20060;-80
2023/04/24 09:55:32;;;;;;;0.63;0.55;;;;;;;18.68;51.90;99491.63;5036635;28;20060;-81
2023/04/24 09:58:00;;;;;;;0.40;0.40;;;;;;;18.83;51.37;99501.22;5031235;28;20033;-79
2023/04/24 10:00:28;;;;;;;0.52;0.52;;;;;;;19.03;50.38;99507.78;5030544;28;20048;-80
2023/04/24 10:02:59;;;;;;;0.60;0.60;;;;;;;18.96;49.09;99502.97;5018256;28;20037;-80
2023/04/24 10:05:32;;;;;;;1.13;0.60;;;;;;;18.86;50.46;99504.63;5036189;28;20477;-82
2023/04/24 10:08:05;;;;;;;0.60;0.60;;;;;;;18.56;49.23;99501.34;5038239;28;20667;-80
2023/04/24 10:10:33;;;;;;;0.75;0.60;;;;;;;18.27;48.21;99490.06;5032811;28;20509;-80
2023/04/24 10:13:01;;;;;;;1.15;0.70;;;;;;;18.33;51.02;99507.50;5052050;28;20087;-82
2023/04/24 10:15:27;;;;;;;1.25;0.63;;;;;;;18.41;53.31;99510.44;5031713;28;20409;-80
2023/04/24 10:17:54;;;;;;;0.52;0.52;;;;;;;18.34;52.23;99506.53;5048307;28;20047;-80
2023/04/24 10:20:23;;;;;;;0.60;0.60;;;;;;;18.25;54.61;99510.69;5049674;28;20529;-80
2023/04/24 10:22:52;;;;;;;0.90;0.70;;;;;;;18.50;54.98;99509.81;5033995;28;20569;-81
2023/04/24 10:25:21;;;;;;;1.02;0.95;;;;;;;18.56;53.52;99506.69;5022077;28;20117;-82
2023/04/24 10:27:49;;;;;;;0.47;0.47;;;;;;;18.73;55.04;99500.16;5049499;28;20045;-80
2023/04/24 10:30:17;;;;;;;1.65;0.80;;;;;;;18.81;54.64;99505.78;5031823;28;20049;-80
2023/04/24 10:32:44;;;;;;;1.55;0.68;;;;;;;18.76;53.97;99507.97;5024273;28;20040;-80
2023/04/24 10:35:13;;;;;;;1.40;0.88;;;;;;;18.64;53.24;99503.47;5040290;28;20045;-79
2023/04/24 10:37:45;;;;;;;0.80;0.70;;;;;;;18.36;54.69;99501.06;5035162;28;20100;-81
2023/04/24 10:40:17;;;;;;;1.63;0.80;;;;;;;18.44;54.61;99507.56;5033211;28;20064;-83
2023/04/24 10:42:48;;;;;;;0.90;0.82;;;;;;;18.45;54.40;99503.94;5044166;28;20036;-83
2023/04/24 10:45:21;;;;;;;1.05;0.70;;;;;;;18.60;55.04;99493.97;5054033;28;20493;-80
2023/04/24 10:47:53;;;;;;;1.80;0.77;;;;;;;18.73;55.21;99493.94;5052975;28;20032;-81
2023/04/24 10:50:19;;;;;;;2.38;1.10;;;;;;;18.90;54.64;99495.38;5038953;28;20060;-80
2023/04/24 10:52:47;;;;;;;3.15;0.70;;;;;;;19.15;51.46;99491.75;5021936;28;20063;-80
2023/04/24 10:55:15;;;;;;;1.48;0.70;;;;;;;19.08;51.42;99494.88;5033776;28;20452;-80
2023/04/24 10:58:02;;;;;;;1.73;0.80;;;;;;;19.11;53.18;99500.03;5012033;28;20489;-80
2023/04/24 11:00:29;;;;;;;1.63;0.70;;;;;;;18.73;52.38;99499.28;5051419;28;20066;-81
2023/04/24 11:02:57;;;;;;;0.88;0.77;;;;;;;18.54;52.53;99502.41;5034651;28;20033;-83
2023/04/24 11:05:53;;;;;;;0.60;0.60;;;;;;;18.33;52.78;99503.94;5055620;28;20044;-81
2023/04/24 11:08:25;;;;;;;1.10;0.80;;;;;;;18.11;54.75;99500.13;5051225;28;20048;-82
2023/04/24 11:11:01;;;;;;;1.58;0.70;;;;;;;17.93;54.99;99504.91;5028485;28;20063;-81
2023/04/24 11:13:53;;;;;;;1.55;0.73;;;;;;;17.84;56.39;99494.88;5021145;28;20037;-83
2023/04/24 11:16:23;;;;;;;1.48;0.80;;;;;;;17.89;57.54;99495.38;5050784;28;20067;-82
2023/04/24 11:18:54;;;;;;;1.83;0.82;;;;;;;18.46;58.34;99496.75;5070030;28;20036;-80
2023/04/24 11:21:22;;;;;;;1.92;0.82;;;;;;;18.75;57.73;99495.56;5024425;28;20033;-82
2023/04/24 11:23:48;;;;;;;3.45;0.90;;;;;;;18.76;56.37;99496.41;5019143;28;20095;-80
2023/04/24 11:26:22;;;;;;;1.92;1.00;;;;;;;18.76;55.19;99488.38;5054399;28;20041;-80
2023/04/24 11:28:51;;;;;;;1.30;0.80;;;;;;;18.68;55.49;99482.75;5035326;28;20083;-80
2023/04/24 11:31:38;;;;;;;0.80;0.80;;;;;;;18.43;53.54;99476.44;5054008;28;20040;-80
2023/04/24 11:34:09;;;;;;;2.00;0.80;;;;;;;18.66;57.52;99487.31;5027999;28;20045;-81
2023/04/24 11:36:36;;;;;;;25.02;16.13;;;;;;;18.77;54.26;99482.06;5043852;28;20413;-80
2023/04/24 11:39:03;;;;;;;4.60;4.20;;;;;;;19.01;55.71;99480.25;5050903;28;20036;-81
2023/04/24 11:41:30;;;;;;;2.00;1.80;;;;;;;19.24;55.75;99472.31;5030450;28;20409;-79
2023/04/24 11:43:57;;;;;;;1.17;0.93;;;;;;;19.37;52.03;99479.31;5017442;28;20052;-81
2023/04/24 11:46:27;;;;;;;2.50;1.10;;;;;;;19.44;54.86;99489.59;5051082;28;20044;-78
2023/04/24 11:48:54;;;;;;;1.65;0.90;;;;;;;19.47;54.80;99484.00;5019563;28;20037;-78
2023/04/24 11:51:22;;;;;;;1.42;0.90;;;;;;;19.31;50.19;99485.13;5040070;28;20103;-79
2023/04/24 11:53:49;;;;;;;1.17;0.85;;;;;;;19.20;53.90;99476.22;5011880;28;20069;-80
2023/04/24 11:56:27;;;;;;;1.15;0.90;;;;;;;19.18;54.58;99480.84;5044937;28;20041;-79
2023/04/24 11:58:54;;;;;;;3.05;1.52;;;;;;;19.20;57.80;99473.53;5025507;28;20091;-80
2023/04/24 12:01:21;;;;;;;2.58;0.90;;;;;;;19.40;51.25;99478.22;5046115;28;20091;-81
2023/04/24 12:03:50;;;;;;;1.10;0.90;;;;;;;19.37;53.48;99483.84;5034475;28;20433;-81
2023/04/24 12:06:18;;;;;;;2.67;2.00;;;;;;;19.33;54.14;99475.16;5053474;28;20063;-80
2023/04/24 12:08:47;;;;;;;0.90;0.80;;;;;;;19.28;53.79;99471.13;5067969;28;20421;-80
2023/04/24 12:11:15;;;;;;;0.93;0.80;;;;;;;19.23;55.78;99468.78;5033476;28;20048;-80
2023/04/24 12:13:42;;;;;;;1.83;0.90;;;;;;;19.09;53.30;99463.63;5030057;28;20040;-80
2023/04/24 12:16:09;;;;;;;1.30;0.85;;;;;;;18.86;55.12;99468.00;5050084;28;20489;-81
2023/04/24 12:18:41;;;;;;;3.08;1.30;;;;;;;18.60;55.02;99474.38;5041263;28;20047;-80
2023/04/24 12:21:19;;;;;;;0.88;0.88;;;;;;;18.46;56.94;99478.88;5030527;28;20077;-81
2023/04/24 12:23:48;;;;;;;1.55;1.02;;;;;;;18.20;60.09;99506.63;5035585;28;20051;-81
2023/04/24 12:26:19;;;;;;;2.28;1.10;;;;;;;17.28;67.05;99514.69;5026634;28;20119;-84
2023/04/24 12:28:49;;;;;;;1.20;0.90;;;;;;;16.80;78.29;99504.44;5020938;28;20127;-81
2023/04/24 12:31:16;;;;;;;2.38;1.00;;;;;;;16.70;89.05;99484.66;5028498;28;20579;-83
2023/04/24 12:33:43;;;;;;;3.47;1.45;;;;;;;16.87;91.58;99491.56;5030903;28;20102;-82
2023/04/24 12:36:12;;;;;;;3.60;2.67;;;;;;;16.97;95.93;99492.69;5013445;28;20277;-81
2023/04/24 12:38:44;;;;;;;1.13;0.93;;;;;;;17.20;94.05;99477.81;5034491;28;20044;-81
2023/04/24 12:41:12;;;;;;;1.92;0.90;;;;;;;17.31;89.81;99488.63;5024067;28;20037;-81
2023/04/24 12:43:53;;;;;;;2.70;1.00;;;;;;;17.32;87.96;99490.38;5027505;28;20726;-81
2023/04/24 12:46:19;;;;;;;2.83;0.90;;;;;;;17.44;89.42;99494.03;5045657;28;20043;-82
2023/04/24 12:48:48;;;;;;;1.55;0.80;;;;;;;17.81;88.50;99488.88;5032180;28;20090;-83
2023/04/24 12:51:14;;;;;;;1.33;1.00;;;;;;;18.03;87.40;99481.09;5033998;28;20052;-80
2023/04/24 12:53:41;;;;;;;1.20;1.10;;;;;;;18.00;79.34;99468.81;5034807;28;20589;-79
2023/04/24 12:56:08;;;;;;;1.10;1.00;;;;;;;18.24;78.12;99471.56;5035422;28;20099;-80
2023/04/24 12:58:35;;;;;;;2.20;1.30;;;;;;;18.52;75.66;99457.06;5044286;28;20109;-80
2023/04/24 13:01:02;;;;;;;2.53;1.00;;;;;;;18.29;67.79;99455.19;5031507;28;20047;-80
2023/04/24 13:03:28;;;;;;;0.80;0.80;;;;;;;18.20;72.87;99464.72;5013515;28;20044;-81
2023/04/24 13:05:55;;;;;;;1.40;1.00;;;;;;;17.97;72.92;99463.66;5016695;28;20099;-79
2023/04/24 13:08:22;;;;;;;1.45;0.90;;;;;;;17.77;71.65;99464.19;5032313;28;20128;-83
2023/04/24 13:10:49;;;;;;;0.93;0.90;;;;;;;17.35;74.22;99490.16;5032126;28;20044;-79
2023/04/24 13:13:16;;;;;;;1.00;0.93;;;;;;;16.92;73.83;99507.28;5046988;28;20041;-78
2023/04/24 13:15:42;;;;;;;2.15;0.90;;;;;;;16.31;74.92;99490.66;5050685;28;20047;-82
2023/04/24 13:18:09;;;;;;;1.92;1.00;;;;;;;15.62;78.65;99496.69;5043785;28;20069;-80
2023/04/24 13:20:36;;;;;;;0.95;0.88;;;;;;;15.35;82.50;99497.34;5039028;28;20029;-77
2023/04/24 13:23:03;;;;;;;2.08;0.80;;;;;;;15.05;88.71;99507.09;5046420;28;20132;-82
2023/04/24 13:25:34;;;;;;;1.75;0.88;;;;;;;14.85;90.53;99518.88;5032572;28;20041;-78
2023/04/24 13:28:01;;;;;;;1.10;1.00;;;;;;;14.77;86.96;99531.75;5032899;28;20045;-82
2023/04/24 13:30:27;;;;;;;0.82;0.82;;;;;;;14.49;91.34;99527.09;5019709;28;20495;-80
2023/04/24 13:32:54;;;;;;;1.40;1.10;;;;;;;14.35;91.63;99525.13;5026785;28;20028;-80
2023/04/24 13:35:21;;;;;;;1.30;0.90;;;;;;;14.12;100.00;99529.03;5026575;28;20102;-81
2023/04/24 13:37:47;;;;;;;1.63;1.30;;;;;;;14.00;100.00;99527.88;5025426;28;20413;-81
2023/04/24 13:40:14;;;;;;;2.50;0.95;;;;;;;13.89;100.00;99535.56;5016819;28;20510;-79
2023/04/24 13:42:41;;;;;;;1.42;0.90;;;;;;;13.78;100.00;99525.47;5026049;28;20033;-82
2023/04/24 13:45:08;;;;;;;1.50;0.98;;;;;;;13.61;100.00;99514.88;5042431;28;20082;-81
2023/04/24 13:47:40;;;;;;;1.63;1.20;;;;;;;13.56;100.00;99529.31;5051273;28;20049;-80
2023/04/24 13:50:08;;;;;;;1.13;1.00;;;;;;;13.60;100.00;99521.13;5023505;28;20139;-81
2023/04/24 13:52:36;;;;;;;1.33;1.10;;;;;;;13.59;100.00;99510.59;5029833;28;20044;-82
2023/04/24 13:55:02;;;;;;;1.55;1.10;;;;;;;13.31;100.00;99504.03;5025516;28;20064;-80
2023/04/24 13:57:30;;;;;;;1.48;1.00;;;;;;;13.42;100.00;99506.13;5052481;28;20521;-81
2023/04/24 14:00:01;;;;;;;1.85;1.17;;;;;;;13.74;100.00;99501.84;5054306;28;20063;-81
2023/04/24 14:02:27;;;;;;;1.38;1.10;;;;;;;13.78;100.00;99495.41;5043543;28;20071;-81
2023/04/24 14:04:54;;;;;;;2.13;1.00;;;;;;;14.12;100.00;99497.16;5012446;28;20036;-80
2023/04/24 14:07:21;;;;;;;1.70;1.10;;;;;;;14.29;100.00;99497.13;5055108;28;20052;-81
2023/04/24 14:09:48;;;;;;;1.10;0.85;;;;;;;14.53;100.00;99497.59;5033648;28;20056;-80
2023/04/24 14:12:16;;;;;;;1.77;1.00;;;;;;;14.73;100.00;99490.34;5017336;28;20044;-80
2023/04/24 14:14:43;;;;;;;118.80;72.40;;;;;;;14.25;100.00;99476.97;5038174;28;20048;-80
2023/04/24 14:17:10;;;;;;;26.77;16.73;;;;;;;14.02;100.00;99486.16;5033935;28;20059;-80
2023/04/24 14:19:36;;;;;;;3.08;1.75;;;;;;;13.89;100.00;99471.84;5015770;28;20064;-81
2023/04/24 14:22:03;;;;;;;1.70;1.45;;;;;;;14.34;100.00;99476.47;5032149;28;20043;-79
2023/04/24 14:24:30;;;;;;;2.03;1.33;;;;;;;14.89;96.44;99472.56;5043133;28;20104;-80
2023/04/24 14:26:57;;;;;;;1.85;1.30;;;;;;;15.05;89.27;99461.88;5029737;28;20039;-79
2023/04/24 14:29:25;;;;;;;1.77;1.27;;;;;;;15.13;97.15;99459.63;5024713;28;20049;-80
2023/04/24 14:31:52;;;;;;;1.20;1.10;;;;;;;15.42;100.00;99468.59;5020995;28;20441;-82
2023/04/24 14:34:19;;;;;;;1.30;1.20;;;;;;;15.65;95.22;99465.44;5034301;28;20139;-81
2023/04/24 14:36:46;;;;;;;1.85;1.30;;;;;;;15.69;90.99;99458.13;5025819;28;20135;-80
2023/04/24 14:39:12;;;;;;;2.65;1.40;;;;;;;15.64;87.08;99454.88;5048503;28;20036;-79
2023/04/24 14:41:40;;;;;;;2.95;1.33;;;;;;;15.68;87.71;99456.41;5041223;28;20092;-79
2023/04/24 14:44:06;;;;;;;2.17;1.20;;;;;;;15.80;88.64;99450.31;5013128;28;20041;-79
2023/04/24 14:46:33;;;;;;;2.17;1.30;;;;;;;15.91;89.46;99447.03;5062951;28;20046;-79
2023/04/24 14:49:00;;;;;;;1.98;1.40;;;;;;;15.73;76.01;99449.84;5047250;28;20038;-82
2023/04/24 14:51:28;;;;;;;2.05;1.50;;;;;;;15.68;78.53;99433.28;5021522;28;20593;-80
2023/04/24 14:53:56;;;;;;;3.05;1.30;;;;;;;15.75;79.72;99431.97;5043574;28;20033;-81
2023/04/24 14:56:24;;;;;;;1.75;1.40;;;;;;;15.93;80.22;99442.44;5039529;28;20051;-79
2023/04/24 14:58:51;;;;;;;2.03;1.42;;;;;;;15.87;76.20;99442.81;5033678;28;20049;-83
2023/04/24 15:01:17;;;;;;;2.17;1.50;;;;;;;15.99;79.47;99442.94;5030096;28;20127;-79
2023/04/24 15:03:45;;;;;;;1.70;1.50;;;;;;;16.16;79.71;99441.88;5238284;23;20038;31
2023/04/24 15:06:12;;;;;;;2.10;1.35;;;;;;;16.26;77.47;99428.81;5030274;28;20073;-79
2023/04/24 15:08:39;;;;;;;2.35;1.40;;;;;;;16.52;75.35;99432.47;5044276;28;20041;-80
2023/04/24 15:11:06;;;;;;;1.92;1.60;;;;;;;16.74;69.69;99435.50;5006696;28;20067;-81
2023/04/24 15:13:32;;;;;;;1.60;1.50;;;;;;;16.91;73.96;99423.72;5063283;28;20099;-79
2023/04/24 15:15:59;;;;;;;2.30;1.70;;;;;;;17.14;67.11;99419.50;5016860;28;20048;-81
2023/04/24 15:18:27;;;;;;;1.85;1.30;;;;;;;17.32;71.15;99430.75;5000216;28;20056;-81
2023/04/24 15:20:54;;;;;;;1.55;1.27;;;;;;;17.48;63.58;99422.56;5028033;28;20041;-80
2023/04/24 15:23:21;;;;;;;1.67;1.58;;;;;;;17.47;59.98;99429.72;5023675;28;20094;-79
2023/04/24 15:25:48;;;;;;;1.88;1.75;;;;;;;17.54;58.36;99425.66;5035787;28;20039;-81
2023/04/24 15:28:15;;;;;;;1.65;1.20;;;;;;;17.63;57.16;99432.19;5015862;28;20116;-78
2023/04/24 15:30:46;;;;;;;2.40;1.40;;;;;;;17.61;56.00;99436.78;5016761;28;20043;-82
2023/04/24 15:33:13;;;;;;;3.42;1.40;;;;;;;17.41;54.33;99431.00;5047377;28;20041;-79
2023/04/24 15:35:40;;;;;;;1.80;1.30;;;;;;;17.40;52.79;99442.66;5024610;28;20090;-80
2023/04/24 15:38:07;;;;;;;2.20;1.38;;;;;;;17.38;51.27;99438.34;5014992;28;20060;-79
2023/04/24 15:40:34;;;;;;;1.38;1.10;;;;;;;17.47;51.94;99432.38;5004658;28;20048;-79
2023/04/24 15:43:01;;;;;;;1.92;1.15;;;;;;;17.55;54.68;99440.72;5012906;28;20037;-78
2023/04/24 15:45:28;;;;;;;2.17;1.30;;;;;;;17.60;47.09;99445.78;5022668;28;20037;-79
2023/04/24 15:47:55;;;;;;;1.90;1.35;;;;;;;17.44;44.94;99438.81;5020421;28;20707;-80
2023/04/24 15:50:22;;;;;;;2.30;1.30;;;;;;;17.41;46.71;99428.34;5016892;28;20048;-78
2023/04/24 15:52:49;;;;;;;1.90;1.25;;;;;;;17.26;44.95;99448.06;5020120;28;20547;-79
2023/04/24 15:55:16;;;;;;;1.58;1.30;;;;;;;17.28;46.45;99442.63;5017944;28;20033;-78
2023/04/24 15:57:43;;;;;;;2.47;1.40;;;;;;;17.12;46.30;99448.97;5021177;28;20032;-82
2023/04/24 16:00:11;;;;;;;2.17;1.50;;;;;;;17.01;46.62;99454.19;5007808;28;20041;-82
2023/04/24 16:02:41;;;;;;;2.83;1.50;;;;;;;16.68;46.83;99454.53;5000295;28;20174;-80
2023/04/24 16:05:08;;;;;;;2.13;1.60;;;;;;;16.38;48.37;99462.69;5030797;28;20045;-78
2023/04/24 16:07:37;;;;;;;2.80;1.50;;;;;;;16.29;48.01;99464.13;5033002;28;20124;-81
2023/04/24 16:10:05;;;;;;;1.83;1.50;;;;;;;15.94;47.69;99470.78;4991120;28;20523;-78
2023/04/24 16:12:31;;;;;;;1.83;1.50;;;;;;;15.91;50.10;99468.31;5011098;28;20133;-82